Time;durP1;ratioP1;P1;durP2;ratioP2;P2;SDS_P1;SDS_P2;PMS_P1;PMS_P2;Temp;Humidity;BMP_temperature;BMP_pressure;BME280_temperature;BME280_humidity;BME280_pressure;Samples;Min_cycle;Max_cycle;Signal;HPM_P1;HPM_P2
2023/07/21 00:01:02;;;;;;;1999.90;999.90;;;11.50;99.90;;;;;;5037962;28;20488;-69
2023/07/21 00:03:27;;;;;;;1999.90;999.90;;;11.50;99.90;;;;;;5041422;28;20044;-69
2023/07/21 00:05:54;;;;;;;1999.90;999.90;;;11.50;99.90;;;;;;5045470;28;20053;-69
2023/07/21 00:08:21;;;;;;;1999.90;999.90;;;11.40;99.90;;;;;;5024102;28;20401;-68
2023/07/21 00:10:46;;;;;;;1999.90;999.90;;;11.40;99.90;;;;;;5046806;28;20052;-69
2023/07/21 00:13:12;;;;;;;1999.90;999.90;;;11.40;99.90;;;;;;5036035;28;20472;-69
2023/07/21 00:15:38;;;;;;;1999.90;999.90;;;11.40;99.90;;;;;;5043424;28;20069;-69
2023/07/21 00:18:04;;;;;;;1999.90;999.90;;;11.30;99.90;;;;;;5044225;28;20037;-69
2023/07/21 00:20:29;;;;;;;1999.90;999.90;;;11.30;99.90;;;;;;5042205;28;20099;-69
2023/07/21 00:22:55;;;;;;;1999.90;999.90;;;11.30;99.90;;;;;;5046617;28;20068;-69
2023/07/21 00:25:21;;;;;;;1999.90;999.90;;;11.30;99.90;;;;;;5026862;28;20041;-69
2023/07/21 00:27:47;;;;;;;1999.90;999.90;;;11.30;99.90;;;;;;5044647;28;20053;-69
2023/07/21 00:30:13;;;;;;;1999.90;999.90;;;11.20;99.90;;;;;;5051749;28;20498;-69
2023/07/21 00:32:41;;;;;;;1999.90;999.90;;;11.20;99.90;;;;;;5037418;28;20045;-69
2023/07/21 00:35:08;;;;;;;1999.90;999.90;;;11.10;99.90;;;;;;5045063;28;20079;-69
2023/07/21 00:37:37;;;;;;;1999.90;999.90;;;11.10;99.90;;;;;;5027122;28;20041;-69
2023/07/21 00:40:05;;;;;;;1999.90;999.90;;;11.10;99.90;;;;;;5043048;28;20387;-69
2023/07/21 00:42:31;;;;;;;1999.90;999.90;;;11.00;99.90;;;;;;5053393;28;20041;-69
2023/07/21 00:44:57;;;;;;;1999.90;999.90;;;11.00;99.90;;;;;;5027126;28;20051;-69
2023/07/21 00:47:27;;;;;;;1999.90;999.90;;;11.00;99.90;;;;;;5032985;28;20045;-69
2023/07/21 00:49:53;;;;;;;1999.90;999.90;;;11.00;99.90;;;;;;5046585;28;20048;-69
2023/07/21 00:52:19;;;;;;;1999.90;999.90;;;10.90;99.90;;;;;;5039152;28;20045;-69
2023/07/21 00:54:45;;;;;;;1999.90;999.90;;;10.90;99.90;;;;;;5026417;28;20195;-69
2023/07/21 00:57:11;;;;;;;1999.90;999.90;;;10.80;99.90;;;;;;5031934;28;20120;-69
2023/07/21 00:59:38;;;;;;;1999.90;999.90;;;10.80;99.90;;;;;;5036481;28;20042;-69
2023/07/21 01:02:05;;;;;;;1999.90;999.90;;;10.70;99.90;;;;;;5046269;28;20045;-69
2023/07/21 01:04:31;;;;;;;1999.90;999.90;;;10.70;99.90;;;;;;5034890;28;20509;-69
2023/07/21 01:06:58;;;;;;;1999.90;999.90;;;10.70;99.90;;;;;;5048920;28;20056;-69
2023/07/21 01:09:27;;;;;;;1999.90;999.90;;;10.60;99.90;;;;;;5028447;28;20041;-69
2023/07/21 01:11:54;;;;;;;1999.90;999.90;;;10.60;99.90;;;;;;5036183;28;20140;-69
2023/07/21 01:14:20;;;;;;;1999.90;999.90;;;10.50;99.90;;;;;;5039797;28;20041;-69
2023/07/21 01:16:47;;;;;;;1999.90;999.90;;;10.50;99.90;;;;;;5038754;28;19932;-69
2023/07/21 01:19:15;;;;;;;1999.90;999.90;;;10.40;99.90;;;;;;5035998;28;20045;-69
2023/07/21 01:21:48;;;;;;;1999.90;999.90;;;10.40;99.90;;;;;;5043417;28;20063;-69
2023/07/21 01:24:27;;;;;;;1999.90;999.90;;;10.40;99.90;;;;;;5045937;28;20041;-69
2023/07/21 01:26:54;;;;;;;1999.90;999.90;;;10.40;99.90;;;;;;5045795;28;20052;-69
2023/07/21 01:29:23;;;;;;;1999.90;999.90;;;10.30;99.90;;;;;;5044696;28;20049;-69
2023/07/21 01:31:50;;;;;;;1999.90;999.90;;;10.30;99.90;;;;;;5039241;28;20464;-69
2023/07/21 01:34:16;;;;;;;1999.90;999.90;;;10.30;99.90;;;;;;5049078;28;20497;-69
2023/07/21 01:36:42;;;;;;;1999.90;999.90;;;10.30;99.90;;;;;;5059737;28;20165;-69
2023/07/21 01:39:08;;;;;;;1999.90;999.90;;;10.30;99.90;;;;;;5049436;28;20045;-69
2023/07/21 01:41:35;;;;;;;1999.90;999.90;;;10.20;99.90;;;;;;5040071;28;20037;-69
2023/07/21 01:44:01;;;;;;;1999.90;999.90;;;10.20;99.90;;;;;;5048711;28;20146;-69
2023/07/21 01:46:27;;;;;;;1999.90;999.90;;;10.20;99.90;;;;;;5019626;28;20367;-69
2023/07/21 01:48:52;;;;;;;1999.90;999.90;;;10.20;99.90;;;;;;5032461;28;20052;-69
2023/07/21 01:51:20;;;;;;;1999.90;999.90;;;10.10;99.90;;;;;;5049355;28;20440;-69
2023/07/21 01:53:54;;;;;;;1999.90;999.90;;;10.10;99.90;;;;;;5047021;28;20048;-69
2023/07/21 01:56:42;;;;;;;1999.90;999.90;;;10.10;99.90;;;;;;5048736;28;20045;-69
2023/07/21 01:59:11;;;;;;;1999.90;999.90;;;10.00;99.90;;;;;;5048465;28;20056;-69
2023/07/21 02:01:38;;;;;;;1999.90;999.90;;;10.00;99.90;;;;;;5047075;28;20041;-69
2023/07/21 02:04:04;;;;;;;1999.90;999.90;;;9.90;99.90;;;;;;5056466;28;20087;-69
2023/07/21 02:06:31;;;;;;;1999.90;999.90;;;9.90;99.90;;;;;;5043419;28;20517;-69
2023/07/21 02:08:57;;;;;;;1999.90;999.90;;;9.80;99.90;;;;;;5039582;28;20037;-69
2023/07/21 02:11:24;;;;;;;1999.90;999.90;;;9.80;99.90;;;;;;5034785;28;20042;-69
2023/07/21 02:13:50;;;;;;;1999.90;999.90;;;9.70;99.90;;;;;;5026823;28;20129;-69
2023/07/21 02:16:15;;;;;;;1999.90;999.90;;;9.70;99.90;;;;;;5046213;28;20124;-69
2023/07/21 02:18:42;;;;;;;1999.90;999.90;;;9.70;99.90;;;;;;5052407;28;20037;-69
2023/07/21 02:21:08;;;;;;;1999.90;999.90;;;9.70;99.90;;;;;;5049217;28;20056;-69
2023/07/21 02:23:33;;;;;;;1999.90;999.90;;;9.70;99.90;;;;;;5048085;28;20033;-69
2023/07/21 02:25:59;;;;;;;1999.90;999.90;;;9.60;99.90;;;;;;5039315;28;20038;-69
2023/07/21 02:28:25;;;;;;;1999.90;999.90;;;9.60;99.90;;;;;;5029965;28;20605;-69
2023/07/21 02:31:04;;;;;;;1999.90;999.90;;;9.60;99.90;;;;;;5042266;28;20218;-69
2023/07/21 02:33:30;;;;;;;1999.90;999.90;;;9.50;99.90;;;;;;5045948;28;20044;-69
2023/07/21 02:35:57;;;;;;;1999.90;999.90;;;9.50;99.90;;;;;;5047340;28;20084;-69
2023/07/21 02:38:23;;;;;;;1999.90;999.90;;;9.50;99.90;;;;;;5004165;28;20375;-69
2023/07/21 02:40:50;;;;;;;1999.90;999.90;;;9.60;99.90;;;;;;5032676;28;20090;-69
2023/07/21 02:43:17;;;;;;;1999.90;999.90;;;9.60;99.90;;;;;;5040952;28;20056;-69
2023/07/21 02:45:49;;;;;;;1999.90;999.90;;;9.60;99.90;;;;;;5026081;28;20488;-69
2023/07/21 02:48:16;;;;;;;1999.90;999.90;;;9.60;99.90;;;;;;5047224;28;20524;-69
2023/07/21 02:50:42;;;;;;;1999.90;999.90;;;9.60;99.90;;;;;;5034316;28;20409;-69
2023/07/21 02:53:08;;;;;;;1999.90;999.90;;;9.60;99.90;;;;;;5038992;28;20045;-69
2023/07/21 02:55:33;;;;;;;1999.90;999.90;;;9.60;99.90;;;;;;5045829;28;20045;-69
2023/07/21 02:57:59;;;;;;;1999.90;999.90;;;9.60;99.90;;;;;;5046576;28;20033;-69
2023/07/21 03:00:25;;;;;;;1999.90;999.90;;;9.60;99.90;;;;;;5037216;28;20096;-69
2023/07/21 03:02:50;;;;;;;1999.90;999.90;;;9.50;99.90;;;;;;5048073;28;20556;-69
2023/07/21 03:05:16;;;;;;;1999.90;999.90;;;9.60;99.90;;;;;;5050608;28;20073;-69
2023/07/21 03:07:42;;;;;;;1999.90;999.90;;;9.50;99.90;;;;;;5040519;28;20057;-69
2023/07/21 03:10:12;;;;;;;1999.90;999.90;;;9.50;99.90;;;;;;5047328;28;20068;-69
2023/07/21 03:12:37;;;;;;;1999.90;999.90;;;9.50;99.90;;;;;;5046074;28;20401;-69
2023/07/21 03:15:05;;;;;;;1999.90;999.90;;;9.50;99.90;;;;;;5030543;28;20047;-69
2023/07/21 03:17:32;;;;;;;1999.90;999.90;;;9.40;99.90;;;;;;5019547;28;20044;-69
2023/07/21 03:19:59;;;;;;;1999.90;999.90;;;9.40;99.90;;;;;;5036405;28;20472;-69
2023/07/21 03:22:24;;;;;;;1999.90;999.90;;;9.30;99.90;;;;;;5045550;28;20048;-69
2023/07/21 03:24:50;;;;;;;1999.90;999.90;;;9.30;99.90;;;;;;5028609;28;20037;-69
2023/07/21 03:27:15;;;;;;;1999.90;999.90;;;9.30;99.90;;;;;;5035557;28;20484;-69
2023/07/21 03:29:42;;;;;;;1999.90;999.90;;;9.20;99.90;;;;;;5039472;28;20078;-69
2023/07/21 03:32:08;;;;;;;1999.90;999.90;;;9.20;99.90;;;;;;5047877;28;20397;-69
2023/07/21 03:34:35;;;;;;;1999.90;999.90;;;9.20;99.90;;;;;;5046740;28;20049;-69
2023/07/21 03:37:04;;;;;;;1999.90;999.90;;;9.20;99.90;;;;;;5047073;28;20049;-69
2023/07/21 03:39:30;;;;;;;1999.90;999.90;;;9.20;99.90;;;;;;5051961;28;20076;-69
2023/07/21 03:41:57;;;;;;;1999.90;999.90;;;9.10;99.90;;;;;;5016920;28;20033;-69
2023/07/21 03:44:22;;;;;;;1999.90;999.90;;;9.20;99.90;;;;;;5030351;28;20041;-69
2023/07/21 03:46:48;;;;;;;1999.90;999.90;;;9.10;99.90;;;;;;5033992;28;20447;-69
2023/07/21 03:49:13;;;;;;;1999.90;999.90;;;9.10;99.90;;;;;;5038216;28;20164;-69
2023/07/21 03:51:40;;;;;;;1999.90;999.90;;;9.10;99.90;;;;;;5025086;28;20040;-69
2023/07/21 03:54:05;;;;;;;1999.90;999.90;;;9.10;99.90;;;;;;5035790;28;20052;-69
2023/07/21 03:56:31;;;;;;;1999.90;999.90;;;9.20;99.90;;;;;;5046410;28;20094;-69
2023/07/21 03:58:58;;;;;;;1999.90;999.90;;;9.20;99.90;;;;;;5040077;28;20037;-69
2023/07/21 04:01:24;;;;;;;1999.90;999.90;;;9.20;99.90;;;;;;5033490;28;20037;-69
2023/07/21 04:03:51;;;;;;;1999.90;999.90;;;9.20;99.90;;;;;;5027217;28;20045;-69
2023/07/21 04:06:20;;;;;;;1999.90;999.90;;;9.20;99.90;;;;;;5045735;28;20084;-69
2023/07/21 04:08:46;;;;;;;1999.90;999.90;;;9.30;99.90;;;;;;5044947;28;20503;-69
2023/07/21 04:11:11;;;;;;;1999.90;999.90;;;9.40;99.90;;;;;;5038050;28;20057;-69
2023/07/21 04:13:37;;;;;;;1999.90;999.90;;;9.40;99.90;;;;;;5041684;28;20052;-69
2023/07/21 04:16:03;;;;;;;1999.90;999.90;;;9.40;99.90;;;;;;5046569;28;20476;-69
2023/07/21 04:18:28;;;;;;;1999.90;999.90;;;9.50;99.90;;;;;;5046345;28;20087;-69
2023/07/21 04:20:54;;;;;;;1999.90;999.90;;;9.50;99.90;;;;;;5046346;28;20037;-69
2023/07/21 04:23:19;;;;;;;1999.90;999.90;;;9.60;99.90;;;;;;5047697;28;20036;-69
2023/07/21 04:25:46;;;;;;;1999.90;999.90;;;9.60;99.90;;;;;;5026792;28;20076;-69
2023/07/21 04:28:12;;;;;;;1999.90;999.90;;;9.70;99.90;;;;;;5046421;28;20099;-69
2023/07/21 04:30:37;;;;;;;1999.90;999.90;;;9.90;99.90;;;;;;5048292;28;20086;-69
2023/07/21 04:33:03;;;;;;;1999.90;999.90;;;10.00;99.90;;;;;;5048805;28;20465;-69
2023/07/21 04:35:29;;;;;;;1999.90;999.90;;;10.10;99.90;;;;;;5039983;28;20156;-69
2023/07/21 04:37:55;;;;;;;1999.90;999.90;;;10.10;99.90;;;;;;5040114;28;20060;-69
2023/07/21 04:40:20;;;;;;;1999.90;999.90;;;10.10;99.90;;;;;;5023202;28;20104;-69
2023/07/21 04:42:46;;;;;;;1999.90;999.90;;;10.10;99.90;;;;;;5037202;28;20040;-69
2023/07/21 04:45:12;;;;;;;1999.90;999.90;;;10.20;99.90;;;;;;5039679;28;20075;-69
2023/07/21 04:47:40;;;;;;;1999.90;999.90;;;10.20;99.90;;;;;;5046183;28;20053;-69
2023/07/21 04:50:07;;;;;;;1999.90;999.90;;;10.20;99.90;;;;;;5045985;28;20045;-69
2023/07/21 04:52:33;;;;;;;1999.90;999.90;;;10.30;99.90;;;;;;5045664;28;20059;-69
2023/07/21 04:54:58;;;;;;;1999.90;999.90;;;10.30;99.90;;;;;;5046096;28;20033;-69
2023/07/21 04:57:25;;;;;;;1999.90;999.90;;;10.40;99.90;;;;;;5035852;28;20037;-69
2023/07/21 04:59:51;;;;;;;1999.90;999.90;;;10.50;99.90;;;;;;5024177;28;20128;-69
2023/07/21 05:02:16;;;;;;;1999.90;999.90;;;10.70;99.90;;;;;;5020380;28;20123;-69
2023/07/21 05:04:42;;;;;;;1999.90;999.90;;;10.80;99.90;;;;;;5031168;28;20099;-69
2023/07/21 05:07:08;;;;;;;1999.90;999.90;;;10.90;99.90;;;;;;5045178;28;20542;-69
2023/07/21 05:09:35;;;;;;;1999.90;999.90;;;11.10;99.90;;;;;;5027630;28;20076;-69
2023/07/21 05:12:01;;;;;;;1999.90;999.90;;;11.20;99.90;;;;;;5042234;28;20072;-69
2023/07/21 05:14:26;;;;;;;1999.90;999.90;;;11.40;99.90;;;;;;5042743;28;20037;-69
2023/07/21 05:16:52;;;;;;;1999.90;999.90;;;11.60;99.90;;;;;;5018601;28;20120;-69
2023/07/21 05:19:18;;;;;;;1999.90;999.90;;;11.70;99.90;;;;;;5023571;28;20040;-69
2023/07/21 05:21:46;;;;;;;1999.90;999.90;;;11.80;99.90;;;;;;5062419;28;20075;-70
2023/07/21 05:24:12;;;;;;;1999.90;999.90;;;11.90;99.90;;;;;;5044642;28;20039;-69
2023/07/21 05:26:38;;;;;;;1999.90;999.90;;;12.00;99.90;;;;;;5024541;28;20148;-69
2023/07/21 05:29:05;;;;;;;1999.90;999.90;;;12.10;99.90;;;;;;5043590;28;20037;-69
2023/07/21 05:31:30;;;;;;;1999.90;999.90;;;12.20;99.90;;;;;;5048295;28;20083;-69
2023/07/21 05:33:56;;;;;;;1999.90;999.90;;;12.30;99.90;;;;;;5037275;28;20073;-69
2023/07/21 05:36:22;;;;;;;1999.90;999.90;;;12.40;99.90;;;;;;5043247;28;20041;-70
2023/07/21 05:38:47;;;;;;;1999.90;999.90;;;12.40;99.90;;;;;;5045488;28;20041;-69
2023/07/21 05:41:13;;;;;;;1999.90;999.90;;;12.50;99.90;;;;;;5040877;28;20041;-69
2023/07/21 05:43:38;;;;;;;1999.90;999.90;;;12.60;99.90;;;;;;5043631;28;20492;-69
2023/07/21 05:46:05;;;;;;;1999.90;999.90;;;12.60;99.90;;;;;;5059301;28;20041;-69
2023/07/21 05:48:31;;;;;;;1999.90;999.90;;;12.70;99.90;;;;;;5021704;28;20393;-69
2023/07/21 05:50:57;;;;;;;1999.90;999.90;;;12.80;99.90;;;;;;5062394;28;20060;-69
2023/07/21 05:53:23;;;;;;;1999.90;999.90;;;13.10;99.90;;;;;;5048177;28;20511;-69
2023/07/21 05:55:50;;;;;;;1999.90;999.90;;;13.30;99.90;;;;;;5033847;28;20077;-69
2023/07/21 05:58:18;;;;;;;1999.90;999.90;;;13.50;99.90;;;;;;5021818;28;20128;-69
2023/07/21 06:00:44;;;;;;;1999.90;999.90;;;13.70;99.90;;;;;;5038796;28;20045;-69
2023/07/21 06:03:10;;;;;;;1999.90;999.90;;;13.90;99.90;;;;;;5038775;28;20555;-69
2023/07/21 06:05:36;;;;;;;1999.90;999.90;;;14.00;99.90;;;;;;5031698;28;20069;-70
2023/07/21 06:08:05;;;;;;;1999.90;999.90;;;14.20;99.90;;;;;;5053554;28;20148;-69
2023/07/21 06:10:31;;;;;;;1999.90;999.90;;;14.40;99.90;;;;;;5052304;28;20505;-70
2023/07/21 06:12:57;;;;;;;1999.90;999.90;;;14.50;99.90;;;;;;5038855;28;20044;-69
2023/07/21 06:15:24;;;;;;;1999.90;999.90;;;14.60;99.90;;;;;;5044873;28;20037;-70
2023/07/21 06:17:50;;;;;;;1999.90;999.90;;;14.90;99.90;;;;;;5045147;28;20068;-69
2023/07/21 06:20:16;;;;;;;1999.90;999.90;;;15.20;99.90;;;;;;5048378;28;20037;-69
2023/07/21 06:22:41;;;;;;;1999.90;999.90;;;15.60;99.90;;;;;;5047875;28;20493;-69
2023/07/21 06:25:07;;;;;;;1999.90;999.90;;;15.90;99.90;;;;;;5026256;28;20519;-70
2023/07/21 06:27:33;;;;;;;1999.90;999.90;;;15.90;99.90;;;;;;5063666;28;20439;-70
2023/07/21 06:29:59;;;;;;;1999.90;999.90;;;15.90;99.90;;;;;;5048596;28;20061;-69
2023/07/21 06:32:24;;;;;;;1999.90;999.90;;;16.10;99.90;;;;;;5045142;28;20120;-69
2023/07/21 06:34:50;;;;;;;1999.90;999.90;;;16.60;99.90;;;;;;5029109;28;20462;-70
2023/07/21 06:37:15;;;;;;;1999.90;999.90;;;17.00;99.90;;;;;;5032095;28;20405;-70
2023/07/21 06:39:41;;;;;;;1999.90;999.90;;;17.70;99.90;;;;;;5026205;28;20049;-70
2023/07/21 06:42:10;;;;;;;1999.90;999.90;;;18.70;99.90;;;;;;5032401;28;20482;-70
2023/07/21 06:44:36;;;;;;;1999.90;999.90;;;20.00;99.90;;;;;;5030239;28;20090;-70
2023/07/21 06:47:01;;;;;;;1999.90;999.90;;;21.10;99.90;;;;;;5047086;28;20036;-70
2023/07/21 06:49:27;;;;;;;585.72;552.97;;;21.50;99.90;;;;;;5045829;28;20040;-70
2023/07/21 06:51:53;;;;;;;584.97;552.50;;;21.30;99.90;;;;;;5047705;28;20382;-70
2023/07/21 06:54:18;;;;;;;679.05;638.28;;;21.30;99.90;;;;;;5047744;28;20037;-70
2023/07/21 06:56:44;;;;;;;655.85;617.28;;;21.70;99.90;;;;;;5046839;28;20041;-70
2023/07/21 06:59:10;;;;;;;710.22;666.08;;;22.30;99.90;;;;;;5025626;28;20037;-70
2023/07/21 07:01:35;;;;;;;649.50;611.67;;;23.00;99.90;;;;;;5045768;28;20048;-70
2023/07/21 07:04:01;;;;;;;617.55;582.60;;;23.80;99.90;;;;;;5038871;28;20059;-70
2023/07/21 07:06:30;;;;;;;584.35;552.25;;;24.20;99.90;;;;;;5038471;28;20612;-70
2023/07/21 07:08:55;;;;;;;591.00;558.20;;;24.40;99.90;;;;;;5042592;28;20556;-70
2023/07/21 07:11:21;;;;;;;599.60;566.28;;;24.70;99.90;;;;;;5025929;28;20105;-70
2023/07/21 07:13:48;;;;;;;632.13;595.53;;;24.60;99.90;;;;;;5037649;28;20126;-70
2023/07/21 07:16:13;;;;;;;594.55;561.55;;;24.60;99.90;;;;;;5047507;28;20045;-70
2023/07/21 07:18:39;;;;;;;633.13;596.65;;;24.70;99.10;;;;;;5028073;28;20044;-70
2023/07/21 07:21:05;;;;;;;570.20;538.65;;;24.70;98.70;;;;;;5023165;28;20114;-70
2023/07/21 07:23:30;;;;;;;441.75;419.52;;;24.80;98.90;;;;;;5047747;28;20052;-70
2023/07/21 07:25:56;;;;;;;436.08;414.58;;;24.80;97.60;;;;;;5046407;28;20497;-70
2023/07/21 07:28:22;;;;;;;436.63;414.63;;;24.50;98.10;;;;;;5022113;28;20146;-70
2023/07/21 07:30:48;;;;;;;428.10;406.70;;;24.50;97.60;;;;;;5047479;28;20041;-70
2023/07/21 07:33:15;;;;;;;383.35;364.88;;;24.10;98.60;;;;;;5045882;28;20121;-70
2023/07/21 07:35:52;;;;;;;390.83;372.25;;;23.40;96.80;;;;;;5034364;28;20049;-70
2023/07/21 07:38:19;;;;;;;457.85;434.63;;;22.60;97.80;;;;;;5045344;28;20086;-70
2023/07/21 07:40:48;;;;;;;517.83;491.05;;;22.90;98.30;;;;;;5023576;28;20433;-70
2023/07/21 07:43:14;;;;;;;485.15;460.58;;;23.50;98.40;;;;;;5044312;28;20040;-70
2023/07/21 07:45:40;;;;;;;410.58;390.67;;;24.10;97.00;;;;;;5047608;28;20389;-70
2023/07/21 07:48:07;;;;;;;414.50;394.67;;;24.20;96.40;;;;;;5048038;28;20041;-70
2023/07/21 07:50:40;;;;;;;411.17;391.30;;;23.50;95.80;;;;;;5045987;28;20037;-70
2023/07/21 07:53:06;;;;;;;435.15;413.67;;;22.70;97.00;;;;;;5024035;28;20469;-70
2023/07/21 07:55:42;;;;;;;364.83;348.00;;;22.20;97.30;;;;;;5046702;28;20157;-70
2023/07/21 07:58:08;;;;;;;483.73;459.67;;;21.60;98.00;;;;;;5039739;28;20120;-70
2023/07/21 08:00:36;;;;;;;390.85;372.35;;;21.20;99.80;;;;;;5035085;28;20501;-70
2023/07/21 08:03:06;;;;;;;255.85;244.52;;;21.40;99.10;;;;;;5042906;28;20045;-70
2023/07/21 08:05:34;;;;;;;349.35;333.27;;;21.30;98.50;;;;;;5037719;28;20513;-70
2023/07/21 08:08:00;;;;;;;468.05;444.75;;;21.10;99.10;;;;;;5023072;28;20037;-70
2023/07/21 08:10:29;;;;;;;321.08;306.77;;;21.10;99.90;;;;;;5043859;28;20087;-70
2023/07/21 08:12:55;;;;;;;315.08;301.25;;;21.20;99.90;;;;;;5021205;28;20060;-70
2023/07/21 08:15:22;;;;;;;242.90;232.38;;;21.20;99.90;;;;;;5045264;28;20044;-70
2023/07/21 08:17:48;;;;;;;478.20;454.20;;;21.20;99.10;;;;;;5021539;28;20037;-70
2023/07/21 08:20:16;;;;;;;217.18;207.50;;;21.10;99.90;;;;;;5045699;28;20037;-69
2023/07/21 08:22:42;;;;;;;265.58;253.65;;;21.10;98.20;;;;;;5045886;28;21388;-70
2023/07/21 08:25:08;;;;;;;353.77;337.42;;;20.90;98.90;;;;;;5025682;28;20076;-69
2023/07/21 08:27:35;;;;;;;312.02;298.02;;;20.90;99.50;;;;;;5047989;28;20099;-70
2023/07/21 08:30:01;;;;;;;261.65;250.23;;;20.90;99.40;;;;;;5062952;28;20408;-70
2023/07/21 08:32:27;;;;;;;263.73;252.02;;;20.80;99.40;;;;;;5024363;28;20041;-70
2023/07/21 08:34:55;;;;;;;350.85;334.70;;;20.80;98.90;;;;;;5046808;28;20561;-70
2023/07/21 08:37:21;;;;;;;312.80;299.08;;;21.10;99.70;;;;;;5045486;28;20432;-69
2023/07/21 08:39:46;;;;;;;369.08;351.83;;;21.60;99.90;;;;;;5041469;28;20044;-70
2023/07/21 08:42:13;;;;;;;383.17;364.95;;;22.40;99.30;;;;;;5043300;28;20052;-70
2023/07/21 08:44:39;;;;;;;393.88;374.67;;;23.30;99.00;;;;;;5045073;28;20045;-70
2023/07/21 08:47:06;;;;;;;369.58;351.83;;;23.90;97.90;;;;;;5047009;28;20400;-70
2023/07/21 08:49:32;;;;;;;298.98;285.00;;;24.50;96.90;;;;;;5041240;28;20465;-70
2023/07/21 08:51:58;;;;;;;442.30;420.23;;;25.20;94.20;;;;;;5026175;28;20112;-70
2023/07/21 08:54:24;;;;;;;234.95;224.50;;;25.60;93.90;;;;;;5031368;28;20472;-71
2023/07/21 08:56:50;;;;;;;24.15;22.83;;;25.50;92.80;;;;;;5032542;28;20049;-71
2023/07/21 08:59:18;;;;;;;33.88;32.22;;;25.40;89.10;;;;;;5033613;28;20033;-71
2023/07/21 09:01:43;;;;;;;33.80;32.15;;;24.40;90.90;;;;;;5057181;28;20040;-70
2023/07/21 09:04:23;;;;;;;113.28;108.20;;;24.00;91.70;;;;;;5037745;28;20037;-70
2023/07/21 09:06:50;;;;;;;73.88;70.50;;;23.80;92.30;;;;;;5038900;28;20143;-70
2023/07/21 09:09:20;;;;;;;358.02;340.63;;;24.20;91.90;;;;;;5045467;28;20044;-70
2023/07/21 09:11:47;;;;;;;83.00;79.18;;;24.90;92.30;;;;;;5031218;28;20509;-70
2023/07/21 09:14:13;;;;;;;19.42;18.33;;;25.30;90.90;;;;;;5042395;28;20049;-70
2023/07/21 09:16:39;;;;;;;30.77;29.17;;;24.90;88.90;;;;;;5029851;28;20053;-70
2023/07/21 09:19:07;;;;;;;24.92;23.67;;;24.40;83.60;;;;;;5033820;28;20094;-70
2023/07/21 09:21:35;;;;;;;22.98;21.77;;;24.00;81.30;;;;;;5024036;28;20040;-70
2023/07/21 09:24:02;;;;;;;23.30;22.02;;;24.40;83.60;;;;;;5042291;28;20045;-70
2023/07/21 09:26:28;;;;;;;36.50;34.78;;;24.70;80.60;;;;;;5045102;28;20045;-70
2023/07/21 09:28:53;;;;;;;21.88;20.73;;;24.90;82.30;;;;;;5042900;28;20068;-70
2023/07/21 09:31:31;;;;;;;23.35;22.15;;;25.00;81.40;;;;;;5045450;28;20109;-70
2023/07/21 09:34:05;;;;;;;60.85;58.13;;;24.60;78.50;;;;;;5044858;28;20052;-70
2023/07/21 09:36:31;;;;;;;123.93;117.95;;;24.10;82.20;;;;;;5039072;28;20084;-70
2023/07/21 09:39:02;;;;;;;28.85;27.33;;;24.10;84.40;;;;;;5027320;28;20789;-70
2023/07/21 09:41:31;;;;;;;87.45;82.95;;;23.90;83.30;;;;;;5037526;28;20127;-70
2023/07/21 09:43:58;;;;;;;152.38;145.23;;;24.30;85.10;;;;;;5044842;28;20068;-70
2023/07/21 09:46:25;;;;;;;26.92;25.63;;;24.70;85.70;;;;;;5027348;28;20439;-70
2023/07/21 09:48:51;;;;;;;26.75;25.42;;;24.80;82.40;;;;;;5043667;28;20459;-70
2023/07/21 09:51:18;;;;;;;35.33;33.63;;;24.80;79.70;;;;;;5048047;28;20463;-70
2023/07/21 09:53:44;;;;;;;25.00;23.75;;;24.50;77.90;;;;;;5049313;28;20049;-70
2023/07/21 09:56:11;;;;;;;25.40;24.10;;;24.00;80.50;;;;;;5028813;28;20037;-70
2023/07/21 09:59:03;;;;;;;24.15;22.65;;;23.70;79.10;;;;;;5029158;28;20038;-70
2023/07/21 10:01:31;;;;;;;25.30;23.98;;;23.30;79.30;;;;;;5018728;28;20090;-70
2023/07/21 10:03:58;;;;;;;27.77;26.33;;;23.00;80.80;;;;;;5042750;28;20432;-70
2023/07/21 10:06:25;;;;;;;24.77;23.48;;;23.00;81.70;;;;;;5045464;28;20068;-70
2023/07/21 10:08:52;;;;;;;22.20;21.02;;;23.20;82.00;;;;;;5023877;28;20055;-70
2023/07/21 10:11:17;;;;;;;20.73;19.52;;;23.60;83.30;;;;;;5033142;28;20049;-71
2023/07/21 10:13:45;;;;;;;19.55;18.45;;;24.00;79.80;;;;;;5038697;28;20511;-70
2023/07/21 10:16:11;;;;;;;19.50;18.35;;;24.00;79.90;;;;;;5047462;28;20083;-70
2023/07/21 10:19:07;;;;;;;20.02;18.83;;;23.80;79.30;;;;;;5038146;28;20044;-70
2023/07/21 10:21:49;;;;;;;20.23;19.13;;;23.40;77.70;;;;;;5048252;28;20063;-69
2023/07/21 10:24:22;;;;;;;89.78;85.78;;;23.00;79.10;;;;;;5018353;28;20076;-70
2023/07/21 10:26:56;;;;;;;21.13;19.95;;;22.80;82.70;;;;;;5046785;28;20045;-70
2023/07/21 10:29:22;;;;;;;29.20;27.67;;;22.70;83.00;;;;;;5043030;28;20052;-70
2023/07/21 10:31:56;;;;;;;20.75;19.52;;;22.70;81.10;;;;;;5031130;28;20397;-69
2023/07/21 10:34:45;;;;;;;72.85;69.32;;;22.50;81.80;;;;;;5046422;28;20493;-71
2023/07/21 10:37:10;;;;;;;123.65;118.03;;;22.40;82.50;;;;;;5041541;28;20064;-70
2023/07/21 10:39:41;;;;;;;69.18;65.88;;;22.30;83.60;;;;;;5044049;28;20470;-69
2023/07/21 10:42:09;;;;;;;42.75;40.67;;;22.40;85.00;;;;;;5044934;28;20048;-70
2023/07/21 10:44:44;;;;;;;96.00;91.15;;;22.60;84.00;;;;;;5043545;28;20116;-70
2023/07/21 10:47:17;;;;;;;97.30;93.13;;;22.70;83.90;;;;;;5041487;28;20037;-70
2023/07/21 10:49:43;;;;;;;115.68;110.65;;;22.80;84.10;;;;;;5061352;28;20508;-70
2023/07/21 10:52:09;;;;;;;103.70;99.20;;;22.90;83.90;;;;;;5042211;28;20048;-70
2023/07/21 10:54:38;;;;;;;95.50;91.22;;;23.10;84.20;;;;;;5042617;28;20524;-69
2023/07/21 10:57:05;;;;;;;404.15;383.67;;;23.30;83.90;;;;;;5031991;28;20290;-70
2023/07/21 10:59:34;;;;;;;63.58;60.83;;;23.30;86.00;;;;;;5037504;28;20045;-70
2023/07/21 11:02:08;;;;;;;22.35;21.08;;;23.40;86.00;;;;;;5042410;28;20492;-70
2023/07/21 11:04:33;;;;;;;103.63;99.20;;;23.80;83.40;;;;;;5041141;28;20044;-70
2023/07/21 11:07:00;;;;;;;25.42;24.05;;;23.90;83.60;;;;;;5030674;28;20052;-70
2023/07/21 11:09:27;;;;;;;173.40;165.20;;;23.90;84.60;;;;;;5047335;28;20500;-70
2023/07/21 11:11:59;;;;;;;157.77;150.73;;;23.90;85.10;;;;;;5045225;28;20052;-70
2023/07/21 11:14:27;;;;;;;51.20;48.75;;;23.90;83.50;;;;;;5048572;28;20040;-70
2023/07/21 11:17:01;;;;;;;28.02;26.50;;;23.80;83.40;;;;;;5046863;28;20442;-70
2023/07/21 11:19:32;;;;;;;115.55;110.53;;;23.60;80.80;;;;;;5043818;28;20362;-70
2023/07/21 11:21:57;;;;;;;58.92;56.30;;;23.20;83.70;;;;;;5030252;28;20106;-70
2023/07/21 11:24:25;;;;;;;198.35;189.68;;;23.00;83.40;;;;;;5030591;28;20419;-70
2023/07/21 11:26:56;;;;;;;133.60;127.75;;;23.10;86.30;;;;;;5040598;28;20118;-70
2023/07/21 11:29:23;;;;;;;154.52;146.80;;;23.40;85.70;;;;;;5047390;28;20541;-70
2023/07/21 11:31:49;;;;;;;166.35;158.27;;;23.60;84.00;;;;;;5063389;28;20045;-70
2023/07/21 11:34:18;;;;;;;61.65;58.67;;;23.80;85.90;;;;;;5042852;28;20473;-70
2023/07/21 11:36:45;;;;;;;19.90;18.73;;;23.90;83.60;;;;;;5040030;28;20603;-70
2023/07/21 11:39:14;;;;;;;23.23;22.02;;;23.90;82.20;;;;;;5020407;28;20582;-70
2023/07/21 11:41:40;;;;;;;30.23;28.63;;;23.80;81.40;;;;;;5047686;28;20158;-70
2023/07/21 11:44:10;;;;;;;20.50;19.20;;;23.60;80.90;;;;;;5022702;28;20041;-69
2023/07/21 11:46:39;;;;;;;25.38;23.98;;;23.50;79.50;;;;;;5046489;28;20080;-70
2023/07/21 11:49:11;;;;;;;100.20;95.40;;;23.30;78.80;;;;;;5046724;28;20131;-70
2023/07/21 11:51:45;;;;;;;22.48;21.25;;;23.20;81.20;;;;;;5030544;28;20045;-69
2023/07/21 11:54:27;;;;;;;36.45;34.67;;;23.30;80.20;;;;;;5024378;28;20041;-71
2023/07/21 11:56:54;;;;;;;30.15;28.55;;;23.40;82.40;;;;;;5051035;28;20523;-69
2023/07/21 11:59:24;;;;;;;41.30;39.17;;;23.40;79.10;;;;;;5041479;28;20055;-70
2023/07/21 12:01:50;;;;;;;37.53;35.65;;;23.00;85.50;;;;;;5046704;28;20040;-70
2023/07/21 12:04:18;;;;;;;264.70;251.95;;;22.50;86.20;;;;;;5038628;28;20036;-70
2023/07/21 12:06:44;;;;;;;307.65;292.88;;;22.10;86.90;;;;;;5044955;28;20061;-70
2023/07/21 12:09:12;;;;;;;256.73;244.90;;;21.80;87.40;;;;;;5010592;28;20107;-70